Terminal Aerodrome Forecast
Issued by NWS

Home | Current Version | Previous Version | Text Only | Print | Product List | Glossary Off
Versions: 1 2 3 4 5 6 7 8 9 10 11 12 13 14 15 16 17 18 19 20 21 22 23 24 25 26 27 28 29 30 31 32 33 34 35 36 37 38 39 40 41 42 43 44 45 46 47 48 49 50

000
FTUS43 KLOT 122300
TAFGYY
TAF
KGYY 122337Z 1300/1324 36012KT 6SM -RA BR BKN025 OVC050
     FM130100 34009KT 6SM -RA BR BKN013 OVC020
     FM130430 33010KT 6SM BR BKN018 OVC030
     FM130900 33010KT P6SM SCT020 BKN040
     FM131200 32008KT P6SM SCT200
     FM131600 35012KT P6SM FEW250
     FM132000 02010KT P6SM FEW250=

USA.gov is the U.S. government's official web portal to all federal, state and local government web resources and services.